BGH weather

Abbaye Airport
Boghe, Brakna Region, Mauritania

Public forecast

Using degrees Celsius for public forecast. Weather courtesy of forecast.io.

METAR (pilot weather report)

Closest report is Podor Airport, 44.2 nm (81.9 km) W. Retrieved 2019/09/16 06:00 UTC (2 hours ago):

GOSP 160600Z 24002KT CAVOK 29/23 Q1010

TAF (pilot weather forecast)

Forecast is more than 12 hours old.

Closest forecast is Nouakchott International Airport, 133.3 nm (246.9 km) NW. Retrieved 2016/06/26 18:52 UTC (3 years ago):

TAF GQNN 261700Z 2618/2800 28010KT 6000 NSC BECMG 2619/2621 BKN008 PROB40 TEMPO 2704/2708 4000 BR BECMG 2709/2711 FEW010